sensor_id;sensor_type;location;lat;lon;timestamp;pressure;altitude;pressure_sealevel;temperature;humidity
21185;BME280;18176;49.502;11.754;2023-08-01T00:04:09;96044.06;;;22.93;67.50
21185;BME280;18176;49.502;11.754;2023-08-01T00:08:10;96018.63;;;22.94;66.87
21185;BME280;18176;49.502;11.754;2023-08-01T00:12:11;96010.88;;;22.72;67.97
21185;BME280;18176;49.502;11.754;2023-08-01T00:16:12;96004.66;;;22.92;67.08
21185;BME280;18176;49.502;11.754;2023-08-01T00:20:15;96004.94;;;22.79;67.30
21185;BME280;18176;49.502;11.754;2023-08-01T00:24:15;95993.69;;;22.77;68.48
21185;BME280;18176;49.502;11.754;2023-08-01T00:28:16;95963.56;;;22.66;68.21
21185;BME280;18176;49.502;11.754;2023-08-01T00:32:16;95960.75;;;22.54;69.03
21185;BME280;18176;49.502;11.754;2023-08-01T00:36:19;95985.00;;;22.42;69.41
21185;BME280;18176;49.502;11.754;2023-08-01T00:40:19;95953.34;;;22.22;70.12
21185;BME280;18176;49.502;11.754;2023-08-01T00:44:20;95968.56;;;22.26;69.46
21185;BME280;18176;49.502;11.754;2023-08-01T00:48:21;95926.88;;;21.95;69.65
21185;BME280;18176;49.502;11.754;2023-08-01T00:52:24;95948.63;;;22.19;69.86
21185;BME280;18176;49.502;11.754;2023-08-01T00:56:24;95950.53;;;22.18;69.88
21185;BME280;18176;49.502;11.754;2023-08-01T01:00:25;95901.22;;;21.89;69.43
21185;BME280;18176;49.502;11.754;2023-08-01T01:04:26;95952.72;;;22.25;69.75
21185;BME280;18176;49.502;11.754;2023-08-01T01:08:30;95927.41;;;22.09;69.36
21185;BME280;18176;49.502;11.754;2023-08-01T01:12:30;95953.06;;;22.23;69.46
21185;BME280;18176;49.502;11.754;2023-08-01T01:16:30;95926.44;;;22.13;70.11
21185;BME280;18176;49.502;11.754;2023-08-01T01:20:34;95933.75;;;22.33;69.56
21185;BME280;18176;49.502;11.754;2023-08-01T01:24:36;95886.63;;;22.31;68.89
21185;BME280;18176;49.502;11.754;2023-08-01T01:28:38;95932.84;;;22.50;69.67
21185;BME280;18176;49.502;11.754;2023-08-01T01:32:40;95916.78;;;22.33;70.25
21185;BME280;18176;49.502;11.754;2023-08-01T01:36:44;95916.09;;;22.15;70.39
21185;BME280;18176;49.502;11.754;2023-08-01T01:40:45;95917.16;;;22.23;69.85
21185;BME280;18176;49.502;11.754;2023-08-01T01:44:53;95846.34;;;21.76;70.45
21185;BME280;18176;49.502;11.754;2023-08-01T01:49:09;95903.22;;;22.21;69.72
21185;BME280;18176;49.502;11.754;2023-08-01T01:53:18;95720.03;;;20.87;70.53
21185;BME280;18176;49.502;11.754;2023-08-01T01:57:33;95884.63;;;21.99;70.79
21185;BME280;18176;49.502;11.754;2023-08-01T02:01:51;95742.28;;;21.13;70.48
21185;BME280;18176;49.502;11.754;2023-08-01T02:06:10;95732.91;;;21.02;70.47
21185;BME280;18176;49.502;11.754;2023-08-01T02:10:56;95677.00;;;20.70;71.02
21185;BME280;18176;49.502;11.754;2023-08-01T02:15:43;95736.59;;;21.06;71.74
21185;BME280;18176;49.502;11.754;2023-08-01T02:20:32;95856.34;;;22.05;71.42
21185;BME280;18176;49.502;11.754;2023-08-01T02:24:43;95763.81;;;21.42;71.89
21185;BME280;18176;49.502;11.754;2023-08-01T02:29:03;95679.31;;;20.88;71.74
21185;BME280;18176;49.502;11.754;2023-08-01T02:33:21;95858.38;;;21.87;72.18
21185;BME280;18176;49.502;11.754;2023-08-01T02:37:38;95666.81;;;20.84;70.94
21185;BME280;18176;49.502;11.754;2023-08-01T02:41:49;95762.75;;;21.55;70.56
21185;BME280;18176;49.502;11.754;2023-08-01T02:45:57;95765.41;;;21.64;71.03
21185;BME280;18176;49.502;11.754;2023-08-01T02:50:04;95688.19;;;21.18;70.76
21185;BME280;18176;49.502;11.754;2023-08-01T02:54:11;95769.59;;;21.74;70.89
21185;BME280;18176;49.502;11.754;2023-08-01T02:58:17;95795.84;;;21.94;70.63
21185;BME280;18176;49.502;11.754;2023-08-01T03:02:32;95581.97;;;20.78;69.69
21185;BME280;18176;49.502;11.754;2023-08-01T03:06:39;95801.22;;;22.14;70.28
21185;BME280;18176;49.502;11.754;2023-08-01T03:10:50;95699.00;;;21.59;70.53
21185;BME280;18176;49.502;11.754;2023-08-01T03:15:06;95700.84;;;21.67;70.02
21185;BME280;18176;49.502;11.754;2023-08-01T03:19:17;95720.88;;;21.79;70.57
21185;BME280;18176;49.502;11.754;2023-08-01T03:23:22;95768.06;;;22.14;70.54
21185;BME280;18176;49.502;11.754;2023-08-01T03:27:24;95765.84;;;22.28;69.92
21185;BME280;18176;49.502;11.754;2023-08-01T03:31:33;95748.28;;;22.22;69.89
21185;BME280;18176;49.502;11.754;2023-08-01T03:35:36;95776.69;;;22.40;69.28
21185;BME280;18176;49.502;11.754;2023-08-01T03:39:36;95775.25;;;22.22;70.26
21185;BME280;18176;49.502;11.754;2023-08-01T03:43:36;95778.84;;;21.93;72.10
21185;BME280;18176;49.502;11.754;2023-08-01T03:47:36;95712.00;;;21.78;71.23
21185;BME280;18176;49.502;11.754;2023-08-01T03:51:39;95740.66;;;22.03;70.61
21185;BME280;18176;49.502;11.754;2023-08-01T03:55:43;95733.56;;;21.99;71.25
21185;BME280;18176;49.502;11.754;2023-08-01T03:59:44;95751.34;;;22.00;71.74
21185;BME280;18176;49.502;11.754;2023-08-01T04:03:44;95758.63;;;21.79;71.58
21185;BME280;18176;49.502;11.754;2023-08-01T04:07:47;95742.78;;;21.77;71.59
21185;BME280;18176;49.502;11.754;2023-08-01T04:11:47;95750.81;;;21.86;70.83
21185;BME280;18176;49.502;11.754;2023-08-01T04:15:48;95746.59;;;21.97;71.08
21185;BME280;18176;49.502;11.754;2023-08-01T04:19:48;95678.28;;;21.51;71.21
21185;BME280;18176;49.502;11.754;2023-08-01T04:23:52;95734.50;;;21.61;71.33
21185;BME280;18176;49.502;11.754;2023-08-01T04:27:53;95725.34;;;21.54;72.53
21185;BME280;18176;49.502;11.754;2023-08-01T04:31:53;95694.19;;;21.44;72.29
21185;BME280;18176;49.502;11.754;2023-08-01T04:35:53;95680.97;;;21.31;72.10
21185;BME280;18176;49.502;11.754;2023-08-01T04:39:57;95705.56;;;21.71;72.43
21185;BME280;18176;49.502;11.754;2023-08-01T04:43:58;95715.09;;;21.68;72.27
21185;BME280;18176;49.502;11.754;2023-08-01T04:48:02;95670.59;;;21.41;71.72
21185;BME280;18176;49.502;11.754;2023-08-01T04:52:04;95693.53;;;21.47;73.32
21185;BME280;18176;49.502;11.754;2023-08-01T04:56:08;95688.81;;;21.86;72.23
21185;BME280;18176;49.502;11.754;2023-08-01T05:00:11;95673.88;;;21.67;72.44
21185;BME280;18176;49.502;11.754;2023-08-01T05:04:11;95683.13;;;21.79;72.44
21185;BME280;18176;49.502;11.754;2023-08-01T05:08:12;95674.13;;;21.95;71.56
21185;BME280;18176;49.502;11.754;2023-08-01T05:12:15;95675.28;;;22.06;71.46
21185;BME280;18176;49.502;11.754;2023-08-01T05:16:15;95666.50;;;21.77;73.00
21185;BME280;18176;49.502;11.754;2023-08-01T05:20:15;95656.50;;;21.77;72.67
21185;BME280;18176;49.502;11.754;2023-08-01T05:24:16;95659.44;;;22.05;71.65
21185;BME280;18176;49.502;11.754;2023-08-01T05:28:19;95626.38;;;21.96;70.99
21185;BME280;18176;49.502;11.754;2023-08-01T05:32:19;95649.50;;;22.42;69.99
21185;BME280;18176;49.502;11.754;2023-08-01T05:36:22;95664.56;;;22.30;69.31
21185;BME280;18176;49.502;11.754;2023-08-01T05:40:22;95685.53;;;22.13;70.00
21185;BME280;18176;49.502;11.754;2023-08-01T05:44:25;95674.13;;;22.40;69.97
21185;BME280;18176;49.502;11.754;2023-08-01T05:48:27;95623.28;;;22.30;68.65
21185;BME280;18176;49.502;11.754;2023-08-01T05:52:31;95620.34;;;22.47;67.90
21185;BME280;18176;49.502;11.754;2023-08-01T05:56:35;95620.50;;;22.75;67.19
21185;BME280;18176;49.502;11.754;2023-08-01T06:00:42;95664.50;;;22.75;67.93
21185;BME280;18176;49.502;11.754;2023-08-01T06:04:45;95627.34;;;22.24;68.10
21185;BME280;18176;49.502;11.754;2023-08-01T06:08:47;95646.19;;;21.58;71.97
21185;BME280;18176;49.502;11.754;2023-08-01T06:12:51;95679.84;;;21.94;71.86
21185;BME280;18176;49.502;11.754;2023-08-01T06:16:57;95640.06;;;21.70;71.74
21185;BME280;18176;49.502;11.754;2023-08-01T06:20:59;95668.06;;;21.98;71.22
21185;BME280;18176;49.502;11.754;2023-08-01T06:25:03;95617.72;;;22.02;70.23
21185;BME280;18176;49.502;11.754;2023-08-01T06:29:08;95618.88;;;21.81;70.64
21185;BME280;18176;49.502;11.754;2023-08-01T06:33:14;95674.66;;;21.89;72.17
21185;BME280;18176;49.502;11.754;2023-08-01T06:37:16;95677.16;;;21.94;71.44
21185;BME280;18176;49.502;11.754;2023-08-01T06:41:22;95640.63;;;21.63;72.13
21185;BME280;18176;49.502;11.754;2023-08-01T06:45:29;95636.59;;;21.69;72.37
21185;BME280;18176;49.502;11.754;2023-08-01T06:49:37;95637.47;;;21.61;72.07
21185;BME280;18176;49.502;11.754;2023-08-01T06:53:43;95671.53;;;21.87;71.86
21185;BME280;18176;49.502;11.754;2023-08-01T06:57:47;95699.25;;;22.08;71.89
21185;BME280;18176;49.502;11.754;2023-08-01T07:01:49;95650.63;;;21.42;72.71
21185;BME280;18176;49.502;11.754;2023-08-01T07:05:55;95705.59;;;22.03;72.79
21185;BME280;18176;49.502;11.754;2023-08-01T07:09:56;95673.97;;;21.71;72.61
21185;BME280;18176;49.502;11.754;2023-08-01T07:14:02;95661.47;;;21.54;73.36
21185;BME280;18176;49.502;11.754;2023-08-01T07:18:03;95714.03;;;21.81;73.08
21185;BME280;18176;49.502;11.754;2023-08-01T07:22:07;95702.69;;;21.96;72.96
21185;BME280;18176;49.502;11.754;2023-08-01T07:26:12;95675.78;;;21.46;73.05
21185;BME280;18176;49.502;11.754;2023-08-01T07:30:19;95729.63;;;21.55;73.93
21185;BME280;18176;49.502;11.754;2023-08-01T07:34:19;95723.44;;;21.34;74.04
21185;BME280;18176;49.502;11.754;2023-08-01T07:38:23;95714.03;;;21.81;73.49
21185;BME280;18176;49.502;11.754;2023-08-01T07:42:24;95704.19;;;22.18;72.02
21185;BME280;18176;49.502;11.754;2023-08-01T07:46:24;95701.22;;;21.99;71.08
21185;BME280;18176;49.502;11.754;2023-08-01T07:50:26;95691.44;;;22.39;70.80
21185;BME280;18176;49.502;11.754;2023-08-01T07:54:29;95685.91;;;22.23;71.42
21185;BME280;18176;49.502;11.754;2023-08-01T07:58:29;95679.47;;;22.16;70.76
21185;BME280;18176;49.502;11.754;2023-08-01T08:02:30;95674.72;;;22.13;70.76
21185;BME280;18176;49.502;11.754;2023-08-01T08:06:30;95699.50;;;22.27;71.02
21185;BME280;18176;49.502;11.754;2023-08-01T08:10:33;95699.47;;;22.15;71.15
21185;BME280;18176;49.502;11.754;2023-08-01T08:14:34;95708.75;;;22.26;72.31
21185;BME280;18176;49.502;11.754;2023-08-01T08:18:35;95681.50;;;22.31;71.43
21185;BME280;18176;49.502;11.754;2023-08-01T08:22:36;95687.06;;;22.59;70.06
21185;BME280;18176;49.502;11.754;2023-08-01T08:26:39;95691.63;;;22.22;71.49
21185;BME280;18176;49.502;11.754;2023-08-01T08:30:40;95679.31;;;22.33;70.88
21185;BME280;18176;49.502;11.754;2023-08-01T08:34:40;95675.38;;;22.55;70.93
21185;BME280;18176;49.502;11.754;2023-08-01T08:38:40;95684.22;;;22.88;70.20
21185;BME280;18176;49.502;11.754;2023-08-01T08:42:45;95686.81;;;22.72;69.53
21185;BME280;18176;49.502;11.754;2023-08-01T08:46:52;95671.66;;;22.59;69.67
21185;BME280;18176;49.502;11.754;2023-08-01T08:50:54;95676.34;;;22.38;70.33
21185;BME280;18176;49.502;11.754;2023-08-01T08:54:56;95686.91;;;22.31;69.58
21185;BME280;18176;49.502;11.754;2023-08-01T08:59:00;95676.47;;;21.97;70.95
21185;BME280;18176;49.502;11.754;2023-08-01T09:03:01;95689.22;;;22.53;71.00
21185;BME280;18176;49.502;11.754;2023-08-01T09:07:08;95669.63;;;21.99;70.37
21185;BME280;18176;49.502;11.754;2023-08-01T09:11:09;95693.63;;;21.59;72.05
21185;BME280;18176;49.502;11.754;2023-08-01T09:15:13;95695.44;;;21.26;72.79
21185;BME280;18176;49.502;11.754;2023-08-01T09:19:17;95691.22;;;21.37;73.41
21185;BME280;18176;49.502;11.754;2023-08-01T09:23:17;95617.63;;;21.04;73.91
21185;BME280;18176;49.502;11.754;2023-08-01T09:27:20;95587.66;;;21.80;72.86
21185;BME280;18176;49.502;11.754;2023-08-01T09:31:30;95512.69;;;21.61;70.78
21185;BME280;18176;49.502;11.754;2023-08-01T09:35:38;95539.06;;;22.12;70.40
21185;BME280;18176;49.502;11.754;2023-08-01T09:39:41;95579.09;;;22.22;71.53
21185;BME280;18176;49.502;11.754;2023-08-01T09:43:46;95612.91;;;22.08;71.01
21185;BME280;18176;49.502;11.754;2023-08-01T09:47:49;95631.63;;;22.37;70.87
21185;BME280;18176;49.502;11.754;2023-08-01T09:51:50;95651.00;;;22.63;69.54
21185;BME280;18176;49.502;11.754;2023-08-01T09:55:53;95639.19;;;22.80;67.72
21185;BME280;18176;49.502;11.754;2023-08-01T09:59:56;95648.69;;;23.38;66.23
21185;BME280;18176;49.502;11.754;2023-08-01T10:04:11;95618.31;;;23.17;66.48
21185;BME280;18176;49.502;11.754;2023-08-01T10:08:14;95662.69;;;23.16;66.26
21185;BME280;18176;49.502;11.754;2023-08-01T10:12:17;95653.66;;;23.24;65.76
21185;BME280;18176;49.502;11.754;2023-08-01T10:16:18;95659.75;;;23.21;65.63
21185;BME280;18176;49.502;11.754;2023-08-01T10:20:22;95651.22;;;22.94;67.29
21185;BME280;18176;49.502;11.754;2023-08-01T10:24:24;95654.09;;;22.41;67.83
21185;BME280;18176;49.502;11.754;2023-08-01T10:28:32;95645.28;;;22.20;68.77
21185;BME280;18176;49.502;11.754;2023-08-01T10:32:36;95646.38;;;22.64;68.20
21185;BME280;18176;49.502;11.754;2023-08-01T10:36:39;95653.72;;;22.99;67.60
21185;BME280;18176;49.502;11.754;2023-08-01T10:40:42;95661.88;;;22.55;66.34
21185;BME280;18176;49.502;11.754;2023-08-01T10:44:45;95661.16;;;22.90;66.31
21185;BME280;18176;49.502;11.754;2023-08-01T10:48:50;95627.78;;;23.11;65.50
21185;BME280;18176;49.502;11.754;2023-08-01T10:53:05;95614.13;;;23.19;64.85
21185;BME280;18176;49.502;11.754;2023-08-01T10:57:07;95661.00;;;23.11;64.61
21185;BME280;18176;49.502;11.754;2023-08-01T11:01:07;95634.50;;;23.29;63.56
21185;BME280;18176;49.502;11.754;2023-08-01T11:05:08;95652.47;;;22.85;66.28
21185;BME280;18176;49.502;11.754;2023-08-01T11:09:22;95641.41;;;22.54;67.25
21185;BME280;18176;49.502;11.754;2023-08-01T11:13:23;95630.09;;;22.72;66.38
21185;BME280;18176;49.502;11.754;2023-08-01T11:17:25;95641.84;;;22.44;68.21
21185;BME280;18176;49.502;11.754;2023-08-01T11:21:26;95636.34;;;22.40;69.40
21185;BME280;18176;49.502;11.754;2023-08-01T11:25:39;95642.19;;;23.02;67.19
21185;BME280;18176;49.502;11.754;2023-08-01T11:29:40;95636.69;;;22.99;67.19
21185;BME280;18176;49.502;11.754;2023-08-01T11:33:41;95637.41;;;23.48;65.25
21185;BME280;18176;49.502;11.754;2023-08-01T11:37:41;95639.09;;;22.76;67.44
21185;BME280;18176;49.502;11.754;2023-08-01T11:41:45;95610.50;;;22.75;69.06
21185;BME280;18176;49.502;11.754;2023-08-01T11:45:50;95641.25;;;23.35;66.97
21185;BME280;18176;49.502;11.754;2023-08-01T11:49:51;95634.88;;;23.15;67.35
21185;BME280;18176;49.502;11.754;2023-08-01T11:53:59;95640.63;;;23.01;67.23
21185;BME280;18176;49.502;11.754;2023-08-01T11:58:02;95641.94;;;23.32;66.57
21185;BME280;18176;49.502;11.754;2023-08-01T12:02:03;95632.41;;;23.62;65.51
21185;BME280;18176;49.502;11.754;2023-08-01T12:06:04;95617.91;;;24.25;62.66
21185;BME280;18176;49.502;11.754;2023-08-01T12:10:06;95628.34;;;24.11;62.13
21185;BME280;18176;49.502;11.754;2023-08-01T12:14:12;95624.66;;;24.47;61.09
21185;BME280;18176;49.502;11.754;2023-08-01T12:18:21;95613.72;;;24.43;61.42
21185;BME280;18176;49.502;11.754;2023-08-01T12:22:41;95597.28;;;24.68;59.21
21185;BME280;18176;49.502;11.754;2023-08-01T12:26:41;95615.44;;;24.20;61.54
21185;BME280;18176;49.502;11.754;2023-08-01T12:30:44;95609.03;;;24.75;59.30
21185;BME280;18176;49.502;11.754;2023-08-01T12:34:46;95613.91;;;24.82;58.27
21185;BME280;18176;49.502;11.754;2023-08-01T12:38:46;95618.66;;;25.04;58.53
21185;BME280;18176;49.502;11.754;2023-08-01T12:42:47;95608.38;;;24.63;58.63
21185;BME280;18176;49.502;11.754;2023-08-01T12:46:50;95639.69;;;23.46;62.84
21185;BME280;18176;49.502;11.754;2023-08-01T12:50:51;95648.72;;;22.41;62.17
21185;BME280;18176;49.502;11.754;2023-08-01T12:54:51;95678.97;;;22.47;62.13
21185;BME280;18176;49.502;11.754;2023-08-01T12:58:52;95671.44;;;23.77;59.06
21185;BME280;18176;49.502;11.754;2023-08-01T13:02:55;95673.78;;;25.27;56.17
21185;BME280;18176;49.502;11.754;2023-08-01T13:06:55;95647.59;;;26.98;53.00
21185;BME280;18176;49.502;11.754;2023-08-01T13:10:57;95638.19;;;28.48;48.12
21185;BME280;18176;49.502;11.754;2023-08-01T13:14:57;95639.13;;;29.10;43.64
21185;BME280;18176;49.502;11.754;2023-08-01T13:19:14;95636.56;;;30.28;42.60
21185;BME280;18176;49.502;11.754;2023-08-01T13:23:14;95624.56;;;30.57;39.38
21185;BME280;18176;49.502;11.754;2023-08-01T13:27:15;95644.47;;;30.43;39.85
21185;BME280;18176;49.502;11.754;2023-08-01T13:31:15;95641.91;;;28.66;40.58
21185;BME280;18176;49.502;11.754;2023-08-01T13:35:18;95653.63;;;29.90;41.03
21185;BME280;18176;49.502;11.754;2023-08-01T13:39:18;95640.53;;;30.34;40.00
21185;BME280;18176;49.502;11.754;2023-08-01T13:43:19;95606.50;;;31.58;36.70
21185;BME280;18176;49.502;11.754;2023-08-01T13:47:19;95641.66;;;30.26;39.06
21185;BME280;18176;49.502;11.754;2023-08-01T13:51:23;95619.91;;;28.45;41.28
21185;BME280;18176;49.502;11.754;2023-08-01T13:55:32;95597.72;;;28.06;43.56
21185;BME280;18176;49.502;11.754;2023-08-01T13:59:37;95625.00;;;27.47;45.38
21185;BME280;18176;49.502;11.754;2023-08-01T14:03:39;95621.72;;;26.82;47.47
21185;BME280;18176;49.502;11.754;2023-08-01T14:07:48;95645.97;;;26.07;49.14
21185;BME280;18176;49.502;11.754;2023-08-01T14:11:54;95689.13;;;25.93;46.75
21185;BME280;18176;49.502;11.754;2023-08-01T14:15:59;95680.22;;;26.11;44.82
21185;BME280;18176;49.502;11.754;2023-08-01T14:20:05;95647.03;;;27.68;40.75
21185;BME280;18176;49.502;11.754;2023-08-01T14:24:17;95670.53;;;29.37;38.37
21185;BME280;18176;49.502;11.754;2023-08-01T14:28:21;95694.63;;;29.28;37.95
21185;BME280;18176;49.502;11.754;2023-08-01T14:32:27;95677.44;;;26.72;41.83
21185;BME280;18176;49.502;11.754;2023-08-01T14:36:33;95722.84;;;25.72;44.42
21185;BME280;18176;49.502;11.754;2023-08-01T14:40:41;95687.31;;;24.77;46.28
21185;BME280;18176;49.502;11.754;2023-08-01T14:45:05;95707.28;;;24.72;47.88
21185;BME280;18176;49.502;11.754;2023-08-01T14:49:10;95680.81;;;24.66;49.12
21185;BME280;18176;49.502;11.754;2023-08-01T14:53:15;95733.44;;;24.96;49.02
21185;BME280;18176;49.502;11.754;2023-08-01T14:57:21;95693.88;;;26.15;50.28
21185;BME280;18176;49.502;11.754;2023-08-01T15:01:24;95719.75;;;26.51;46.81
21185;BME280;18176;49.502;11.754;2023-08-01T15:05:29;95650.34;;;26.76;45.27
21185;BME280;18176;49.502;11.754;2023-08-01T15:09:35;95682.69;;;25.43;46.83
21185;BME280;18176;49.502;11.754;2023-08-01T15:13:47;95676.44;;;25.77;46.28
21185;BME280;18176;49.502;11.754;2023-08-01T15:17:54;95714.00;;;25.25;47.20
21185;BME280;18176;49.502;11.754;2023-08-01T15:21:57;95707.69;;;25.21;47.04
21185;BME280;18176;49.502;11.754;2023-08-01T15:25:58;95681.84;;;25.58;45.63
21185;BME280;18176;49.502;11.754;2023-08-01T15:30:02;95717.31;;;26.87;43.17
21185;BME280;18176;49.502;11.754;2023-08-01T15:34:03;95712.34;;;27.15;42.06
21185;BME280;18176;49.502;11.754;2023-08-01T15:38:05;95728.41;;;26.56;42.78
21185;BME280;18176;49.502;11.754;2023-08-01T15:42:07;95725.63;;;27.21;41.69
21185;BME280;18176;49.502;11.754;2023-08-01T15:46:11;95732.66;;;27.74;41.84
21185;BME280;18176;49.502;11.754;2023-08-01T15:50:11;95730.59;;;28.97;39.30
21185;BME280;18176;49.502;11.754;2023-08-01T15:54:12;95738.94;;;29.72;37.82
21185;BME280;18176;49.502;11.754;2023-08-01T15:58:12;95736.88;;;28.61;39.49
21185;BME280;18176;49.502;11.754;2023-08-01T16:02:15;95725.00;;;29.23;38.64
21185;BME280;18176;49.502;11.754;2023-08-01T16:06:16;95734.50;;;28.96;38.59
21185;BME280;18176;49.502;11.754;2023-08-01T16:10:16;95720.84;;;28.96;39.07
21185;BME280;18176;49.502;11.754;2023-08-01T16:14:16;95719.97;;;28.85;39.53
21185;BME280;18176;49.502;11.754;2023-08-01T16:18:38;95721.56;;;28.89;39.43
21185;BME280;18176;49.502;11.754;2023-08-01T16:22:38;95721.50;;;28.45;40.75
21185;BME280;18176;49.502;11.754;2023-08-01T16:26:38;95706.78;;;27.57;40.83
21185;BME280;18176;49.502;11.754;2023-08-01T16:30:38;95732.66;;;27.74;42.37
21185;BME280;18176;49.502;11.754;2023-08-01T16:34:41;95733.28;;;28.93;39.70
21185;BME280;18176;49.502;11.754;2023-08-01T16:38:41;95731.78;;;28.26;41.21
21185;BME280;18176;49.502;11.754;2023-08-01T16:42:43;95740.91;;;28.07;41.77
21185;BME280;18176;49.502;11.754;2023-08-01T16:46:43;95741.25;;;27.24;42.98
21185;BME280;18176;49.502;11.754;2023-08-01T16:50:46;95748.03;;;26.69;45.22
21185;BME280;18176;49.502;11.754;2023-08-01T16:54:46;95735.47;;;25.84;45.68
21185;BME280;18176;49.502;11.754;2023-08-01T16:58:46;95754.06;;;25.82;46.89
21185;BME280;18176;49.502;11.754;2023-08-01T17:02:48;95758.28;;;25.99;46.57
21185;BME280;18176;49.502;11.754;2023-08-01T17:06:51;95747.28;;;25.92;46.58
21185;BME280;18176;49.502;11.754;2023-08-01T17:10:51;95749.97;;;25.72;47.51
21185;BME280;18176;49.502;11.754;2023-08-01T17:14:51;95759.28;;;25.40;48.53
21185;BME280;18176;49.502;11.754;2023-08-01T17:18:52;95767.63;;;25.00;48.25
21185;BME280;18176;49.502;11.754;2023-08-01T17:22:55;95765.69;;;25.17;48.73
21185;BME280;18176;49.502;11.754;2023-08-01T17:26:55;95770.03;;;24.74;50.03
21185;BME280;18176;49.502;11.754;2023-08-01T17:30:55;95812.81;;;24.81;51.13
21185;BME280;18176;49.502;11.754;2023-08-01T17:34:56;95816.94;;;24.63;52.46
21185;BME280;18176;49.502;11.754;2023-08-01T17:38:59;95830.63;;;23.38;58.75
21185;BME280;18176;49.502;11.754;2023-08-01T17:42:59;95831.38;;;23.51;60.58
21185;BME280;18176;49.502;11.754;2023-08-01T17:47:01;95828.47;;;23.68;61.77
21185;BME280;18176;49.502;11.754;2023-08-01T17:51:05;95799.84;;;23.43;61.56
21185;BME280;18176;49.502;11.754;2023-08-01T17:55:09;95823.59;;;23.25;61.15
21185;BME280;18176;49.502;11.754;2023-08-01T17:59:09;95821.38;;;22.82;62.02
21185;BME280;18176;49.502;11.754;2023-08-01T18:03:12;95834.63;;;22.75;63.07
21185;BME280;18176;49.502;11.754;2023-08-01T18:07:13;95853.28;;;22.68;63.31
21185;BME280;18176;49.502;11.754;2023-08-01T18:11:17;95855.88;;;22.65;64.22
21185;BME280;18176;49.502;11.754;2023-08-01T18:15:20;95857.06;;;22.55;64.53
21185;BME280;18176;49.502;11.754;2023-08-01T18:19:22;95863.84;;;22.61;64.39
21185;BME280;18176;49.502;11.754;2023-08-01T18:23:25;95848.19;;;22.34;65.02
21185;BME280;18176;49.502;11.754;2023-08-01T18:27:31;95854.13;;;22.07;65.06
21185;BME280;18176;49.502;11.754;2023-08-01T18:31:35;95864.72;;;21.83;65.61
21185;BME280;18176;49.502;11.754;2023-08-01T18:35:41;95890.53;;;22.21;65.74
21185;BME280;18176;49.502;11.754;2023-08-01T18:39:42;95933.41;;;21.85;65.99
21185;BME280;18176;49.502;11.754;2023-08-01T18:43:45;95980.19;;;21.43;66.97
21185;BME280;18176;49.502;11.754;2023-08-01T18:47:46;95961.38;;;21.00;67.06
21185;BME280;18176;49.502;11.754;2023-08-01T18:51:50;95948.09;;;21.12;66.58
21185;BME280;18176;49.502;11.754;2023-08-01T18:56:10;95866.78;;;20.47;67.60
21185;BME280;18176;49.502;11.754;2023-08-01T19:00:17;95942.41;;;20.88;67.95
21185;BME280;18176;49.502;11.754;2023-08-01T19:04:18;95950.94;;;21.16;66.97
21185;BME280;18176;49.502;11.754;2023-08-01T19:08:21;95941.28;;;21.15;67.25
21185;BME280;18176;49.502;11.754;2023-08-01T19:12:24;95976.25;;;21.23;67.67
21185;BME280;18176;49.502;11.754;2023-08-01T19:16:30;95981.16;;;21.30;67.08
21185;BME280;18176;49.502;11.754;2023-08-01T19:20:30;95969.31;;;21.22;67.12
21185;BME280;18176;49.502;11.754;2023-08-01T19:24:31;96004.81;;;21.24;67.90
21185;BME280;18176;49.502;11.754;2023-08-01T19:28:32;96017.50;;;21.15;68.34
21185;BME280;18176;49.502;11.754;2023-08-01T19:32:37;96014.47;;;20.99;68.81
21185;BME280;18176;49.502;11.754;2023-08-01T19:36:38;96037.91;;;20.82;69.21
21185;BME280;18176;49.502;11.754;2023-08-01T19:40:39;96034.88;;;20.75;68.27
21185;BME280;18176;49.502;11.754;2023-08-01T19:44:41;96013.78;;;19.95;68.61
21185;BME280;18176;49.502;11.754;2023-08-01T19:48:47;96032.16;;;20.41;68.61
21185;BME280;18176;49.502;11.754;2023-08-01T19:52:50;96046.44;;;20.67;68.42
21185;BME280;18176;49.502;11.754;2023-08-01T19:56:53;95994.25;;;20.11;68.72
21185;BME280;18176;49.502;11.754;2023-08-01T20:00:54;96041.88;;;20.76;68.27
21185;BME280;18176;49.502;11.754;2023-08-01T20:04:57;96042.16;;;20.66;68.55
21185;BME280;18176;49.502;11.754;2023-08-01T20:08:58;96045.31;;;20.68;67.95
21185;BME280;18176;49.502;11.754;2023-08-01T20:12:58;96029.19;;;20.68;67.69
21185;BME280;18176;49.502;11.754;2023-08-01T20:16:59;96035.97;;;20.57;68.68
21185;BME280;18176;49.502;11.754;2023-08-01T20:21:03;96021.56;;;20.61;67.82
21185;BME280;18176;49.502;11.754;2023-08-01T20:25:04;96016.94;;;20.45;67.97
21185;BME280;18176;49.502;11.754;2023-08-01T20:29:05;96025.63;;;20.24;68.16
21185;BME280;18176;49.502;11.754;2023-08-01T20:33:05;96055.22;;;20.33;67.80
21185;BME280;18176;49.502;11.754;2023-08-01T20:37:08;96070.34;;;20.60;67.00
21185;BME280;18176;49.502;11.754;2023-08-01T20:41:12;96057.41;;;20.79;66.59
21185;BME280;18176;49.502;11.754;2023-08-01T20:45:13;96044.09;;;20.74;66.24
21185;BME280;18176;49.502;11.754;2023-08-01T20:49:13;96059.59;;;20.60;66.52
21185;BME280;18176;49.502;11.754;2023-08-01T20:53:16;96060.84;;;20.71;66.05
21185;BME280;18176;49.502;11.754;2023-08-01T20:57:17;96047.47;;;20.32;67.07
21185;BME280;18176;49.502;11.754;2023-08-01T21:01:17;96074.28;;;20.54;66.60
21185;BME280;18176;49.502;11.754;2023-08-01T21:05:18;96021.47;;;20.18;66.66
21185;BME280;18176;49.502;11.754;2023-08-01T21:09:21;96054.81;;;20.40;67.07
21185;BME280;18176;49.502;11.754;2023-08-01T21:13:21;96050.66;;;20.34;66.62
21185;BME280;18176;49.502;11.754;2023-08-01T21:17:22;96066.84;;;20.51;66.06